Řízení letového provozu České republiky
Letiste: LKCV Aktualizace: 09.12.2016 11:08:05  UTC
 METAR LKCV 09.12. 11:00 ...
METAR LKCV 091100Z VRB02KT 9999 OVC022 05/03 Q1027 NOSIG=
 TAF LKCV 09.12. 05:00 ...
TAF LKCV 090500Z 0906/1006 16004KT 9999 SCT025      BECMG 0907/0909 26008KT SCT020 BKN025      PROB30 TEMPO 0908/0921 6000 RA BKN018      TEMPO 1001/1006 VRB02KT 4000 BR SCT010=